Cebollita Spring, Valles Caldera, New Mexico Weather observations

Data are for 10 minute period ending at time listed.
 Day   Time   Solar   Ave.   Ave.  Ave.  Vector  Max.   Baro.   Total    
  of    of     Rad.   Air    Rel.  Wind   Wind   Wind  Press.  Precip.   
Year   Day            Temp.  Hum.  Speed  Dir.   Gust                    
2016   (MST)  Kw/m2    F      %     mph   deg.    mph    mb.     in.     
-------------------------------------------------------------------------
  42   16:30   0.23   49.7    16    7.6   295    14.3   99999.0    0.00 
  42   16:40   0.22   48.4    19    7.8   289    17.3   99999.0    0.00 
  42   16:50   0.19   47.8    20    7.7   298    14.9   99999.0    0.00 
  42   17:00   0.11   47.1    21    7.0   302    13.7   99999.0    0.00 
  42   17:10   0.11   46.2    23    6.3   290    10.8   99999.0    0.00 
  42   17:20   0.09   45.3    24    4.9   304     9.0   99999.0    0.00 
  42   17:30   0.07   45.1    24    4.8   313    12.2   99999.0    0.00 
  42   17:40   0.02   43.7    28    3.7   321     6.0   99999.0    0.00 
  42   17:50   0.01   41.6    29    5.4   311     8.4   99999.0    0.00 
  42   18:00   0.01   41.4    28    4.7   300     8.4   99999.0    0.00 
  42   18:10   0.00   41.1    28    6.1   292    11.9   99999.0    0.00 
  42   18:20   0.00   41.5    27    6.4   298    13.7   99999.0    0.00 
  42   18:30   0.00   42.0    26    8.0   295    16.7   99999.0    0.00 
  42   18:40   0.00   41.5    28    7.3   306    12.5   99999.0    0.00 
  42   18:50   0.00   41.0    28    5.9   316     9.6   99999.0    0.00 
  42   19:00   0.00   40.0    31    6.0   310    11.3   99999.0    0.00 
  42   19:10   0.00   39.3    32    6.4   311    10.8   99999.0    0.00 
  42   19:20   0.00   39.1    33    6.6   313    11.9   99999.0    0.00 
  42   19:30   0.00   39.1    32    6.3   324    10.8   99999.0    0.00 
  42   19:40   0.00   39.1    32    6.0   335    11.3   99999.0    0.00 
  42   19:50   0.00   39.0    31    6.6   339    11.9   99999.0    0.00 
  42   20:00   0.00   38.7    32    5.6   344    10.8   99999.0    0.00 
  42   20:10   0.00   37.8    33    5.4   353    10.2   99999.0    0.00 
  42   20:20   0.00   37.4    32    5.0   351    10.2   99999.0    0.00 
  42   20:30   0.00   37.0    32    5.8   338    10.8   99999.0    0.00 
  42   20:40   0.00   37.5    30    6.2   344    10.2   99999.0    0.00 
  42   20:50   0.00   37.1    30    5.7   330    10.2   99999.0    0.00 
  42   21:00   0.00   36.8    31    5.4   335    10.2   99999.0    0.00 
  42   21:10   0.00   36.2    31    5.2   342     8.4   99999.0    0.00 
  42   21:20   0.00   35.6    32    4.5   340     8.4   99999.0    0.00 
  42   21:30   0.00   34.8    34    4.3   336     8.4   99999.0    0.00 
  42   21:40   0.00   32.5    47    4.1   333     6.6   99999.0    0.00 
  42   21:50   0.00   29.9    52    5.3   327     8.4   99999.0    0.00 
  42   22:00   0.00   28.8    54    4.7   328     8.4   99999.0    0.00 
  42   22:10   0.00   29.3    54    4.2   337     7.2   99999.0    0.00 
  42   22:20   0.00   30.0    50    4.9   338     8.4   99999.0    0.00 
  42   22:30   0.00   31.0    43    4.8   340     7.2   99999.0    0.00 
  42   22:40   0.00   30.9    44    4.5   331     7.2   99999.0    0.00 
  42   22:50   0.00   29.5    48    4.7   324     6.6   99999.0    0.00 
  42   23:00   0.00   29.0    46    4.2   335     6.6   99999.0    0.00 
  42   23:10   0.00   31.2    38    3.6   351     6.6   99999.0    0.00 
  42   23:20   0.00   32.7    34    2.7   354     4.8   99999.0    0.00 
  42   23:30   0.00   32.8    35    3.6   348     6.0   99999.0    0.00 
  42   23:40   0.00   31.8    42    3.6   349     6.6   99999.0    0.00 
  42   23:50   0.00   31.0    42    4.3   345     9.0   99999.0    0.00 
  43    0:00   0.00   32.9    35    4.8   345     8.4   99999.0    0.00 
  43    0:10   0.00   32.5    38    4.9   339     7.8   99999.0    0.00 
  43    0:20   0.00   31.8    39    5.2   338     7.8   99999.0    0.00 
  43    0:30   0.00   31.6    39    5.0   343     8.4   99999.0    0.00 
  43    0:40   0.00   31.9    36    4.9   343     9.0   99999.0    0.00 
  43    0:50   0.00   32.2    34    4.0   342     6.6   99999.0    0.00 
  43    1:00   0.00   31.5    36    3.8   348     6.6   99999.0    0.00 
  43    1:10   0.00   30.5    40    4.3   343     7.2   99999.0    0.00 
  43    1:20   0.00   30.7    41    4.8   338     8.4   99999.0    0.00 
  43    1:30   0.00   31.6    37    5.0   342     8.4   99999.0    0.00 
  43    1:40   0.00   32.9    35    4.8   345     8.4   99999.0    0.00 
  43    1:50   0.00   31.4    42    5.0   342     9.0   99999.0    0.00 
  43    2:00   0.00   29.9    45    4.9   338     8.4   99999.0    0.00 
  43    2:10   0.00   30.4    41    5.3   341     9.6   99999.0    0.00 
  43    2:20   0.00   32.6    35    5.1   345     9.0   99999.0    0.00 
  43    2:30   0.00   33.0    34    4.5   351     7.8   99999.0    0.00 
  43    2:40   0.00   32.9    33    4.5   345     7.8   99999.0    0.00 
  43    2:50   0.00   32.1    37    4.5   345     7.8   99999.0    0.00 
  43    3:00   0.00   31.1    39    3.9   343     6.0   99999.0    0.00 
  43    3:10   0.00   29.6    44    4.0   348     7.2   99999.0    0.00 
  43    3:20   0.00   28.4    46    4.0   353     6.6   99999.0    0.00 
  43    3:30   0.00   27.6    48    3.5   353     6.0   99999.0    0.00 
  43    3:40   0.00   27.3    48    3.2   356     6.0   99999.0    0.00 
  43    3:50   0.00   26.9    49    3.0   357     5.4   99999.0    0.00 
  43    4:00   0.00   27.7    46    3.2   351     6.0   99999.0    0.00 
  43    4:10   0.00   28.5    44    3.0   352     5.4   99999.0    0.00 
  43    4:20   0.00   28.6    44    3.9   345     6.0   99999.0    0.00 
  43    4:30   0.00   28.5    46    3.2   343     5.4   99999.0    0.00 
  43    4:40   0.00   27.9    47    3.6   347     6.0   99999.0    0.00 
  43    4:50   0.00   27.8    46    3.1   349     5.4   99999.0    0.00 
  43    5:00   0.00   27.3    48    2.5   352     4.8   99999.0    0.00 
  43    5:10   0.00   26.9    49    2.0   354     3.6   99999.0    0.00 
  43    5:20   0.00   25.8    55    2.0     1     4.2   99999.0    0.00 
  43    5:30   0.00   24.7    58    2.3   357     6.0   99999.0    0.00 
  43    5:40   0.00   25.0    57    3.3   358     5.4   99999.0    0.00 
  43    5:50   0.00   25.4    57    3.4   353     6.0   99999.0    0.00 
  43    6:00   0.00   24.9    58    2.9   359     6.6   99999.0    0.00 
  43    6:10   0.00   24.5    59    2.9   358     5.4   99999.0    0.00 
  43    6:20   0.00   25.1    57    3.6   355     6.6   99999.0    0.00 
  43    6:30   0.00   26.2    55    3.4   349     5.4   99999.0    0.00 
  43    6:40   0.00   26.8    55    3.4   354     6.0   99999.0    0.00 
  43    6:50   0.00   26.4    56    3.5     0     6.6   99999.0    0.00 
  43    7:00   0.00   25.2    59    1.9     4     4.2   99999.0    0.00 
  43    7:10   0.01   24.2    62    1.3    15     3.0   99999.0    0.00 
  43    7:20   0.01   23.8    63    1.9    15     3.6   99999.0    0.00 
  43    7:30   0.02   24.4    62    1.3    17     4.2   99999.0    0.00 
  43    7:40   0.03   25.4    60    0.5    20     1.8   99999.0    0.00 
  43    7:50   0.14   26.5    57    1.5    79     3.6   99999.0    0.00 
  43    8:00   0.25   27.9    57    0.0     0     0.0   99999.0    0.00 
  43    8:10   0.29   28.5    59    0.7   329     2.4   99999.0    0.00 
  43    8:20   0.34   29.8    54    1.2   332     3.0   99999.0    0.00 
  43    8:30   0.38   32.9    48    0.0     0     0.0   99999.0    0.00 
  43    8:40   0.41   35.9    39    0.6   286     1.8   99999.0    0.00 
  43    8:50   0.45   40.0    31    1.0   256     2.4   99999.0    0.00 
  43    9:00   0.49   43.9    25    1.7   247     3.0   99999.0    0.00 
  43    9:10   0.52   46.4    22    1.8   198     3.9   99999.0    0.00 
  43    9:20   0.56   50.3    19    2.1   194     5.4   99999.0    0.00 
  43    9:30   0.59   53.8    18    2.2   171     3.6   99999.0    0.00 
  43    9:40   0.62   55.0    17    2.5   167     5.4   99999.0    0.00 
  43    9:50   0.65   55.0    18    2.6   178     4.8   99999.0    0.00 
  43   10:00   0.68   56.4    16    2.2   173     4.2   99999.0    0.00 
  43   10:10   0.70   55.5    16    3.4   254     6.0   99999.0    0.00 
  43   10:20   0.72   55.4    16    5.5   306    11.9   99999.0    0.00 
  43   10:30   0.74   55.8    16    5.0   311     9.0   99999.0    0.00 
  43   10:40   0.76   56.4    17    4.2   294     8.4   99999.0    0.00 
  43   10:50   0.78   56.4    16    5.4   299    10.2   99999.0    0.00 
  43   11:00   0.80   56.6    16    4.8   304     9.0   99999.0    0.00 
  43   11:10   0.81   57.9    15    4.2   273     7.8   99999.0    0.00 
  43   11:20   0.72   59.3    14    3.2   296    10.8   99999.0    0.00 
  43   11:30   0.83   59.4    14    3.8   331    14.3   99999.0    0.00 
  43   11:40   0.84   60.6    14    2.5   206     6.0   99999.0    0.00 
  43   11:50   0.85   60.6    15    3.5   283     6.6   99999.0    0.00 
  43   12:00   0.85   58.8    19    4.1   159    10.2   99999.0    0.00 
  43   12:10   0.86   57.6    20    4.4   149     9.0   99999.0    0.00 
  43   12:20   0.85   57.4    19    4.9   167     9.6   99999.0    0.00 
  43   12:30   0.85   57.4    19    4.7   147     9.6   99999.0    0.00 
  43   12:40   0.85   58.2    19    4.7   144     8.4   99999.0    0.00 
  43   12:50   0.84   58.0    19    3.9   158     9.6   99999.0    0.00 
  43   13:00   0.78   58.7    18    3.4   184     8.4   99999.0    0.00 
  43   13:10   0.83   59.1    16    4.0   190     8.4   99999.0    0.00 
  43   13:20   0.81   58.6    17    3.5   188     6.0   99999.0    0.00 
  43   13:30   0.80   57.9    18    4.4   190     9.6   99999.0    0.00 
  43   13:40   0.78   57.6    18    4.3   182     9.0   99999.0    0.00 
  43   13:50   0.77   58.2    18    4.4   179     8.4   99999.0    0.00 
  43   14:00   0.74   57.5    18    3.6   197     6.0   99999.0    0.00 
  43   14:10   0.72   58.0    19    4.2   204     7.8   99999.0    0.00 
  43   14:20   0.70   57.9    19    3.5   227     7.8   99999.0    0.00 
  43   14:30   0.67   58.4    20    4.0   235     7.8   99999.0    0.00 
  43   14:40   0.64   58.1    20    3.8   209     6.6   99999.0    0.00 
  43   14:50   0.61   58.3    20    3.6   207    10.8   99999.0    0.00 
  43   15:00   0.58   58.8    21    3.2   166     7.2   99999.0    0.00 
  43   15:10   0.55   58.7    22    3.3   190     6.6   99999.0    0.01 
  43   15:20   0.52   58.2    21    4.4   183     7.8   99999.0    0.00 
  43   15:30   0.48   58.4    21    4.0   208     9.6   99999.0    0.00 
  43   15:40   0.45   57.6    22    4.1   205     7.8   99999.0    0.00 
  43   15:50   0.41   57.7    22    4.9   256    11.3   99999.0    0.00 
  43   16:00   0.37   56.7    21    5.7   317     9.0   99999.0    0.00 
  43   16:10   0.33   56.3    22    5.0   293    10.2   99999.0    0.01 
  43   16:20   0.29   55.8    22    4.7   304     9.0   99999.0    0.00 

Return to Cebollita Spring, Valles Caldera graphs page.


Western Regional Climate Center,wrcc@dri.edu